createdAt,value
2022-09-24T00:10:53.987Z,3860.84634
2022-09-24T00:25:56.324Z,3819.16379
2022-09-24T00:40:58.790Z,3515.52844
2022-09-24T00:56:01.302Z,3286.87621
2022-09-24T01:11:03.557Z,3123.62079
2022-09-24T01:26:05.837Z,2838.51607
2022-09-24T01:41:08.370Z,2549.55006
2022-09-24T01:56:10.652Z,2251.39271
2022-09-24T02:11:12.949Z,2038.9054
2022-09-24T02:26:15.225Z,1917.34467
2022-09-24T02:41:17.515Z,1886.66716
2022-09-24T02:56:19.820Z,1842.44841
2022-09-24T03:11:22.104Z,1767.64572
2022-09-24T03:26:24.418Z,1640.5802
2022-09-24T03:41:26.723Z,1454.26567
2022-09-24T03:56:29.008Z,1400.99061
2022-09-24T04:11:31.334Z,1406.56115
2022-09-24T04:26:33.681Z,1373.78692
2022-09-24T04:41:35.967Z,1324.90688
2022-09-24T04:56:38.291Z,1221.93488
2022-09-24T05:11:40.878Z,1247.79592
2022-09-24T05:26:43.376Z,1241.22858
2022-09-24T05:41:45.730Z,1239.0548
2022-09-24T05:56:48.015Z,1163.65182
2022-09-24T06:11:50.305Z,1109.80442
2022-09-24T06:26:52.626Z,1097.7507
2022-09-24T06:41:54.947Z,1116.81187
2022-09-24T06:56:57.430Z,1088.46204
2022-09-24T07:11:59.806Z,1057.54908
2022-09-24T07:27:02.140Z,1035.11389
2022-09-24T07:42:04.418Z,1029.09141
2022-09-24T07:57:06.715Z,1037.39053
2022-09-24T08:12:09.021Z,1030.59045
2022-09-24T08:27:16.410Z,1000.0005
2022-09-24T08:42:19.753Z,1017.98611
2022-09-24T08:57:22.260Z,990.20344
2022-09-24T09:12:24.813Z,1006.40164
2022-09-24T09:27:27.091Z,999.29429
2022-09-24T09:42:29.441Z,989.51099
2022-09-24T09:57:31.884Z,984.00606
2022-09-24T10:12:34.221Z,986.75085
2022-09-24T10:27:36.548Z,990.89686
2022-09-24T10:42:38.860Z,834.80876
2022-09-24T10:57:41.175Z,889.37825
2022-09-24T11:12:43.453Z,931.5344
2022-09-24T11:27:45.763Z,928.47819
2022-09-24T11:42:48.076Z,949.028
2022-09-24T11:57:50.452Z,927.86935
2022-09-24T12:12:52.790Z,917.63993
2022-09-24T12:27:55.148Z,889.9376
2022-09-24T12:42:57.428Z,889.9376
2022-09-24T12:57:59.712Z,886.03682
2022-09-24T13:13:01.967Z,818.86624
2022-09-24T13:28:04.259Z,823.15349
2022-09-24T13:43:06.570Z,843.76913
2022-09-24T13:58:08.780Z,794.05212
2022-09-24T14:13:11.005Z,834.80876
2022-09-24T14:28:13.216Z,803.0652
2022-09-24T14:43:15.460Z,705.38295
2022-09-24T14:58:17.724Z,811.8192
2022-09-24T15:13:19.938Z,847.81356
2022-09-24T15:28:22.200Z,877.24786
2022-09-24T15:43:24.411Z,854.4691
2022-09-24T15:58:26.647Z,876.70434
2022-09-24T16:13:28.931Z,885.48235
2022-09-24T16:28:31.175Z,984.00606
2022-09-24T16:43:33.491Z,982.63939
2022-09-24T16:58:35.729Z,986.75085
2022-09-24T17:13:37.967Z,1000.70771
2022-09-24T17:28:40.153Z,1089.29996
2022-09-24T17:43:42.458Z,1165.56887
2022-09-24T17:58:44.712Z,1186.086
2022-09-24T18:13:46.892Z,1197.12402
2022-09-24T18:28:49.306Z,1217.72856
2022-09-24T18:43:51.672Z,1317.50516
2022-09-24T18:58:53.902Z,1339.96263
2022-09-24T19:13:56.330Z,1294.60252
2022-09-24T19:28:58.537Z,1365.83063
2022-09-24T19:44:05.939Z,1311.39995
2022-09-24T19:59:10.694Z,1310.18569
2022-09-24T20:14:13.072Z,1440.93738
2022-09-24T20:29:15.304Z,1599.77438
2022-09-24T20:44:17.495Z,1740.4679
2022-09-24T20:59:19.913Z,1835.27936
2022-09-24T21:14:22.198Z,2024.32096
2022-09-24T21:29:24.557Z,2158.65802
2022-09-24T21:44:26.741Z,2254.98059
2022-09-24T21:59:29.104Z,2412.61773
2022-09-24T22:14:31.298Z,2400.33978
2022-09-24T22:29:33.565Z,2366.22125
2022-09-24T22:44:35.933Z,2435.45662
2022-09-24T22:59:38.528Z,2433.36251
2022-09-24T23:14:40.725Z,2284.10059
2022-09-24T23:29:42.954Z,2083.94748
2022-09-24T23:44:45.222Z,1946.35538
2022-09-24T23:59:47.465Z,1736.19681
